sensor_id;sensor_type;location;lat;lon;timestamp;P1;durP1;ratioP1;P2;durP2;ratioP2
8466;SDS011;4270;48.148;11.648;2023-10-19T00:00:35;30.10;;;17.37;;
8466;SDS011;4270;48.148;11.648;2023-10-19T00:03:01;26.37;;;18.27;;
8466;SDS011;4270;48.148;11.648;2023-10-19T00:05:31;28.50;;;18.10;;
8466;SDS011;4270;48.148;11.648;2023-10-19T00:07:58;28.83;;;17.07;;
8466;SDS011;4270;48.148;11.648;2023-10-19T00:10:24;23.87;;;16.97;;
8466;SDS011;4270;48.148;11.648;2023-10-19T00:12:51;29.30;;;17.73;;
8466;SDS011;4270;48.148;11.648;2023-10-19T00:15:24;31.40;;;19.93;;
8466;SDS011;4270;48.148;11.648;2023-10-19T00:17:51;27.87;;;19.37;;
8466;SDS011;4270;48.148;11.648;2023-10-19T00:20:18;30.37;;;18.20;;
8466;SDS011;4270;48.148;11.648;2023-10-19T00:23:10;28.67;;;17.93;;
8466;SDS011;4270;48.148;11.648;2023-10-19T00:25:38;27.90;;;18.00;;
8466;SDS011;4270;48.148;11.648;2023-10-19T00:28:06;26.70;;;17.67;;
8466;SDS011;4270;48.148;11.648;2023-10-19T00:30:31;29.80;;;19.33;;
8466;SDS011;4270;48.148;11.648;2023-10-19T00:33:00;30.27;;;18.30;;
8466;SDS011;4270;48.148;11.648;2023-10-19T00:35:29;27.47;;;17.27;;
8466;SDS011;4270;48.148;11.648;2023-10-19T00:37:59;30.13;;;18.80;;
8466;SDS011;4270;48.148;11.648;2023-10-19T00:40:43;26.40;;;16.37;;
8466;SDS011;4270;48.148;11.648;2023-10-19T00:43:12;29.97;;;17.60;;
8466;SDS011;4270;48.148;11.648;2023-10-19T00:45:38;26.00;;;16.50;;
8466;SDS011;4270;48.148;11.648;2023-10-19T00:48:06;28.20;;;17.13;;
8466;SDS011;4270;48.148;11.648;2023-10-19T00:50:33;26.20;;;16.83;;
8466;SDS011;4270;48.148;11.648;2023-10-19T00:52:58;26.60;;;17.90;;
8466;SDS011;4270;48.148;11.648;2023-10-19T00:55:23;32.00;;;18.40;;
8466;SDS011;4270;48.148;11.648;2023-10-19T00:57:51;22.60;;;16.10;;
8466;SDS011;4270;48.148;11.648;2023-10-19T01:00:19;27.17;;;18.30;;
8466;SDS011;4270;48.148;11.648;2023-10-19T01:02:55;27.33;;;17.37;;
8466;SDS011;4270;48.148;11.648;2023-10-19T01:05:24;24.77;;;16.10;;
8466;SDS011;4270;48.148;11.648;2023-10-19T01:07:53;26.20;;;16.77;;
8466;SDS011;4270;48.148;11.648;2023-10-19T01:10:22;27.50;;;17.20;;
8466;SDS011;4270;48.148;11.648;2023-10-19T01:12:48;29.83;;;19.00;;
8466;SDS011;4270;48.148;11.648;2023-10-19T01:15:16;28.20;;;17.30;;
8466;SDS011;4270;48.148;11.648;2023-10-19T01:17:43;27.07;;;17.13;;
8466;SDS011;4270;48.148;11.648;2023-10-19T01:20:09;28.00;;;16.90;;
8466;SDS011;4270;48.148;11.648;2023-10-19T01:28:14;27.63;;;18.10;;
8466;SDS011;4270;48.148;11.648;2023-10-19T01:30:42;28.50;;;17.40;;
8466;SDS011;4270;48.148;11.648;2023-10-19T01:33:07;29.57;;;18.70;;
8466;SDS011;4270;48.148;11.648;2023-10-19T01:35:38;32.57;;;19.00;;
8466;SDS011;4270;48.148;11.648;2023-10-19T01:38:21;30.00;;;19.30;;
8466;SDS011;4270;48.148;11.648;2023-10-19T01:40:46;28.50;;;18.80;;
8466;SDS011;4270;48.148;11.648;2023-10-19T01:43:13;29.87;;;18.80;;
8466;SDS011;4270;48.148;11.648;2023-10-19T01:45:45;28.67;;;18.50;;
8466;SDS011;4270;48.148;11.648;2023-10-19T01:48:11;28.70;;;19.13;;
8466;SDS011;4270;48.148;11.648;2023-10-19T01:50:38;31.10;;;17.77;;
8466;SDS011;4270;48.148;11.648;2023-10-19T01:53:04;26.70;;;17.60;;
8466;SDS011;4270;48.148;11.648;2023-10-19T01:55:37;30.43;;;18.30;;
8466;SDS011;4270;48.148;11.648;2023-10-19T01:58:03;30.40;;;19.10;;
8466;SDS011;4270;48.148;11.648;2023-10-19T02:00:28;30.33;;;19.57;;
8466;SDS011;4270;48.148;11.648;2023-10-19T02:02:53;30.00;;;19.17;;
8466;SDS011;4270;48.148;11.648;2023-10-19T02:05:18;27.07;;;17.87;;
8466;SDS011;4270;48.148;11.648;2023-10-19T02:07:44;26.20;;;18.60;;
8466;SDS011;4270;48.148;11.648;2023-10-19T02:10:09;33.43;;;19.83;;
8466;SDS011;4270;48.148;11.648;2023-10-19T02:12:35;32.70;;;18.13;;
8466;SDS011;4270;48.148;11.648;2023-10-19T02:15:00;29.97;;;20.43;;
8466;SDS011;4270;48.148;11.648;2023-10-19T02:17:26;31.67;;;19.20;;
8466;SDS011;4270;48.148;11.648;2023-10-19T02:19:51;29.10;;;18.80;;
8466;SDS011;4270;48.148;11.648;2023-10-19T02:22:16;30.87;;;18.57;;
8466;SDS011;4270;48.148;11.648;2023-10-19T02:24:42;30.40;;;18.97;;
8466;SDS011;4270;48.148;11.648;2023-10-19T02:27:07;30.13;;;19.10;;
8466;SDS011;4270;48.148;11.648;2023-10-19T02:29:32;29.00;;;20.00;;
8466;SDS011;4270;48.148;11.648;2023-10-19T02:31:57;29.27;;;19.80;;
8466;SDS011;4270;48.148;11.648;2023-10-19T02:34:28;30.47;;;19.23;;
8466;SDS011;4270;48.148;11.648;2023-10-19T02:36:54;26.13;;;17.10;;
8466;SDS011;4270;48.148;11.648;2023-10-19T02:39:19;26.67;;;18.23;;
8466;SDS011;4270;48.148;11.648;2023-10-19T02:41:46;26.23;;;18.67;;
8466;SDS011;4270;48.148;11.648;2023-10-19T02:44:18;26.63;;;16.77;;
8466;SDS011;4270;48.148;11.648;2023-10-19T02:46:47;28.67;;;17.57;;
8466;SDS011;4270;48.148;11.648;2023-10-19T02:49:13;29.63;;;18.40;;
8466;SDS011;4270;48.148;11.648;2023-10-19T02:51:40;27.10;;;17.90;;
8466;SDS011;4270;48.148;11.648;2023-10-19T02:54:06;26.03;;;17.63;;
8466;SDS011;4270;48.148;11.648;2023-10-19T02:56:32;28.23;;;18.73;;
8466;SDS011;4270;48.148;11.648;2023-10-19T02:59:00;26.60;;;17.50;;
8466;SDS011;4270;48.148;11.648;2023-10-19T03:01:32;31.30;;;19.13;;
8466;SDS011;4270;48.148;11.648;2023-10-19T03:04:01;27.00;;;17.50;;
8466;SDS011;4270;48.148;11.648;2023-10-19T03:06:27;25.20;;;16.70;;
8466;SDS011;4270;48.148;11.648;2023-10-19T03:08:57;28.63;;;18.93;;
8466;SDS011;4270;48.148;11.648;2023-10-19T03:11:23;32.00;;;19.03;;
8466;SDS011;4270;48.148;11.648;2023-10-19T03:13:49;25.40;;;17.27;;
8466;SDS011;4270;48.148;11.648;2023-10-19T03:16:15;26.60;;;17.73;;
8466;SDS011;4270;48.148;11.648;2023-10-19T03:18:40;29.83;;;19.40;;
8466;SDS011;4270;48.148;11.648;2023-10-19T03:21:05;25.70;;;17.30;;
8466;SDS011;4270;48.148;11.648;2023-10-19T03:23:30;25.37;;;17.07;;
8466;SDS011;4270;48.148;11.648;2023-10-19T03:25:59;30.80;;;19.47;;
8466;SDS011;4270;48.148;11.648;2023-10-19T03:28:43;26.37;;;17.83;;
8466;SDS011;4270;48.148;11.648;2023-10-19T03:31:09;27.20;;;17.90;;
8466;SDS011;4270;48.148;11.648;2023-10-19T03:33:42;26.87;;;18.93;;
8466;SDS011;4270;48.148;11.648;2023-10-19T03:36:08;26.93;;;17.30;;
8466;SDS011;4270;48.148;11.648;2023-10-19T03:38:38;28.87;;;18.20;;
8466;SDS011;4270;48.148;11.648;2023-10-19T03:41:05;28.73;;;18.30;;
8466;SDS011;4270;48.148;11.648;2023-10-19T03:43:32;27.97;;;17.90;;
8466;SDS011;4270;48.148;11.648;2023-10-19T03:45:58;27.40;;;17.67;;
8466;SDS011;4270;48.148;11.648;2023-10-19T03:48:24;24.93;;;17.10;;
8466;SDS011;4270;48.148;11.648;2023-10-19T03:50:51;28.40;;;17.23;;
8466;SDS011;4270;48.148;11.648;2023-10-19T03:53:18;27.83;;;17.73;;
8466;SDS011;4270;48.148;11.648;2023-10-19T03:55:43;24.50;;;16.57;;
8466;SDS011;4270;48.148;11.648;2023-10-19T03:58:09;28.17;;;18.20;;
8466;SDS011;4270;48.148;11.648;2023-10-19T04:00:37;26.30;;;17.83;;
8466;SDS011;4270;48.148;11.648;2023-10-19T04:03:02;26.87;;;16.40;;
8466;SDS011;4270;48.148;11.648;2023-10-19T04:05:27;23.53;;;16.97;;
8466;SDS011;4270;48.148;11.648;2023-10-19T04:07:53;22.80;;;17.37;;
8466;SDS011;4270;48.148;11.648;2023-10-19T04:10:23;26.80;;;18.03;;
8466;SDS011;4270;48.148;11.648;2023-10-19T04:13:00;28.30;;;18.17;;
8466;SDS011;4270;48.148;11.648;2023-10-19T04:15:26;27.40;;;16.70;;
8466;SDS011;4270;48.148;11.648;2023-10-19T04:17:51;24.77;;;16.57;;
8466;SDS011;4270;48.148;11.648;2023-10-19T04:20:18;24.77;;;16.57;;
8466;SDS011;4270;48.148;11.648;2023-10-19T04:22:46;29.77;;;17.70;;
8466;SDS011;4270;48.148;11.648;2023-10-19T04:25:12;26.00;;;17.50;;
8466;SDS011;4270;48.148;11.648;2023-10-19T04:27:38;23.23;;;16.27;;
8466;SDS011;4270;48.148;11.648;2023-10-19T04:30:04;25.73;;;16.93;;
8466;SDS011;4270;48.148;11.648;2023-10-19T04:32:30;28.50;;;17.10;;
8466;SDS011;4270;48.148;11.648;2023-10-19T04:34:56;27.90;;;17.70;;
8466;SDS011;4270;48.148;11.648;2023-10-19T04:37:23;26.70;;;18.10;;
8466;SDS011;4270;48.148;11.648;2023-10-19T04:39:49;27.63;;;16.93;;
8466;SDS011;4270;48.148;11.648;2023-10-19T04:42:15;26.87;;;17.30;;
8466;SDS011;4270;48.148;11.648;2023-10-19T04:44:40;24.93;;;18.50;;
8466;SDS011;4270;48.148;11.648;2023-10-19T04:47:05;28.07;;;16.37;;
8466;SDS011;4270;48.148;11.648;2023-10-19T04:49:30;27.07;;;18.07;;
8466;SDS011;4270;48.148;11.648;2023-10-19T04:51:55;31.37;;;19.73;;
8466;SDS011;4270;48.148;11.648;2023-10-19T04:54:21;29.70;;;19.60;;
8466;SDS011;4270;48.148;11.648;2023-10-19T04:56:46;27.33;;;17.73;;
8466;SDS011;4270;48.148;11.648;2023-10-19T04:59:11;26.40;;;17.50;;
8466;SDS011;4270;48.148;11.648;2023-10-19T05:01:36;27.63;;;19.37;;
8466;SDS011;4270;48.148;11.648;2023-10-19T05:04:02;26.20;;;17.47;;
8466;SDS011;4270;48.148;11.648;2023-10-19T05:06:27;28.40;;;17.43;;
8466;SDS011;4270;48.148;11.648;2023-10-19T05:08:52;25.37;;;16.53;;
8466;SDS011;4270;48.148;11.648;2023-10-19T05:11:18;24.20;;;16.53;;
8466;SDS011;4270;48.148;11.648;2023-10-19T05:13:43;25.87;;;16.73;;
8466;SDS011;4270;48.148;11.648;2023-10-19T05:16:08;24.10;;;17.10;;
8466;SDS011;4270;48.148;11.648;2023-10-19T05:18:33;25.30;;;15.97;;
8466;SDS011;4270;48.148;11.648;2023-10-19T05:20:59;26.40;;;16.30;;
8466;SDS011;4270;48.148;11.648;2023-10-19T05:23:26;22.10;;;15.50;;
8466;SDS011;4270;48.148;11.648;2023-10-19T05:25:52;22.47;;;15.27;;
8466;SDS011;4270;48.148;11.648;2023-10-19T05:28:18;21.50;;;15.13;;
8466;SDS011;4270;48.148;11.648;2023-10-19T05:30:44;23.20;;;15.00;;
8466;SDS011;4270;48.148;11.648;2023-10-19T05:33:09;21.80;;;15.67;;
8466;SDS011;4270;48.148;11.648;2023-10-19T05:35:34;22.00;;;14.37;;
8466;SDS011;4270;48.148;11.648;2023-10-19T05:38:05;22.60;;;15.00;;
8466;SDS011;4270;48.148;11.648;2023-10-19T05:40:30;21.67;;;14.20;;
8466;SDS011;4270;48.148;11.648;2023-10-19T05:42:56;24.60;;;16.07;;
8466;SDS011;4270;48.148;11.648;2023-10-19T05:45:22;23.93;;;16.00;;
8466;SDS011;4270;48.148;11.648;2023-10-19T05:47:48;20.97;;;14.57;;
8466;SDS011;4270;48.148;11.648;2023-10-19T05:50:13;24.87;;;14.53;;
8466;SDS011;4270;48.148;11.648;2023-10-19T05:52:41;24.67;;;15.97;;
8466;SDS011;4270;48.148;11.648;2023-10-19T05:55:07;27.60;;;16.50;;
8466;SDS011;4270;48.148;11.648;2023-10-19T05:57:33;20.83;;;15.70;;
8466;SDS011;4270;48.148;11.648;2023-10-19T05:59:58;20.73;;;14.10;;
8466;SDS011;4270;48.148;11.648;2023-10-19T06:02:23;19.50;;;14.37;;
8466;SDS011;4270;48.148;11.648;2023-10-19T06:04:48;20.70;;;14.57;;
8466;SDS011;4270;48.148;11.648;2023-10-19T06:07:14;18.60;;;14.00;;
8466;SDS011;4270;48.148;11.648;2023-10-19T06:09:39;19.40;;;14.30;;
8466;SDS011;4270;48.148;11.648;2023-10-19T06:12:05;20.67;;;15.13;;
8466;SDS011;4270;48.148;11.648;2023-10-19T06:14:30;16.70;;;12.73;;
8466;SDS011;4270;48.148;11.648;2023-10-19T06:16:56;17.93;;;15.13;;
8466;SDS011;4270;48.148;11.648;2023-10-19T06:19:21;21.13;;;14.00;;
8466;SDS011;4270;48.148;11.648;2023-10-19T06:21:47;15.97;;;13.67;;
8466;SDS011;4270;48.148;11.648;2023-10-19T06:24:12;17.70;;;14.03;;
8466;SDS011;4270;48.148;11.648;2023-10-19T06:26:39;15.60;;;13.07;;
8466;SDS011;4270;48.148;11.648;2023-10-19T06:29:06;16.63;;;12.07;;
8466;SDS011;4270;48.148;11.648;2023-10-19T06:31:31;19.53;;;15.47;;
8466;SDS011;4270;48.148;11.648;2023-10-19T06:33:56;16.37;;;13.50;;
8466;SDS011;4270;48.148;11.648;2023-10-19T06:36:25;19.00;;;14.33;;
8466;SDS011;4270;48.148;11.648;2023-10-19T06:38:50;20.00;;;15.00;;
8466;SDS011;4270;48.148;11.648;2023-10-19T06:41:16;18.10;;;13.73;;
8466;SDS011;4270;48.148;11.648;2023-10-19T06:43:43;22.23;;;14.50;;
8466;SDS011;4270;48.148;11.648;2023-10-19T06:46:08;22.07;;;15.70;;
8466;SDS011;4270;48.148;11.648;2023-10-19T06:48:36;18.03;;;13.13;;
8466;SDS011;4270;48.148;11.648;2023-10-19T06:51:01;20.00;;;13.57;;
8466;SDS011;4270;48.148;11.648;2023-10-19T06:53:26;19.77;;;14.37;;
8466;SDS011;4270;48.148;11.648;2023-10-19T06:55:52;21.23;;;14.60;;
8466;SDS011;4270;48.148;11.648;2023-10-19T06:58:18;20.93;;;15.10;;
8466;SDS011;4270;48.148;11.648;2023-10-19T07:00:44;24.87;;;16.47;;
8466;SDS011;4270;48.148;11.648;2023-10-19T07:03:10;24.10;;;15.70;;
8466;SDS011;4270;48.148;11.648;2023-10-19T07:05:36;23.27;;;14.07;;
8466;SDS011;4270;48.148;11.648;2023-10-19T07:08:01;17.20;;;13.70;;
8466;SDS011;4270;48.148;11.648;2023-10-19T07:10:27;16.20;;;12.77;;
8466;SDS011;4270;48.148;11.648;2023-10-19T07:12:53;22.00;;;14.03;;
8466;SDS011;4270;48.148;11.648;2023-10-19T07:15:19;17.30;;;12.73;;
8466;SDS011;4270;48.148;11.648;2023-10-19T07:17:44;18.10;;;13.70;;
8466;SDS011;4270;48.148;11.648;2023-10-19T07:20:10;14.90;;;12.03;;
8466;SDS011;4270;48.148;11.648;2023-10-19T07:22:50;15.77;;;12.50;;
8466;SDS011;4270;48.148;11.648;2023-10-19T07:25:16;18.13;;;12.73;;
8466;SDS011;4270;48.148;11.648;2023-10-19T07:27:45;22.10;;;13.10;;
8466;SDS011;4270;48.148;11.648;2023-10-19T07:30:10;18.13;;;13.23;;
8466;SDS011;4270;48.148;11.648;2023-10-19T07:32:37;16.50;;;12.20;;
8466;SDS011;4270;48.148;11.648;2023-10-19T07:35:04;12.63;;;10.83;;
8466;SDS011;4270;48.148;11.648;2023-10-19T07:37:29;16.30;;;12.60;;
8466;SDS011;4270;48.148;11.648;2023-10-19T07:39:54;13.50;;;11.50;;
8466;SDS011;4270;48.148;11.648;2023-10-19T07:42:22;13.50;;;11.03;;
8466;SDS011;4270;48.148;11.648;2023-10-19T07:44:47;13.73;;;10.90;;
8466;SDS011;4270;48.148;11.648;2023-10-19T07:47:12;14.23;;;11.13;;
8466;SDS011;4270;48.148;11.648;2023-10-19T07:49:38;14.77;;;10.60;;
8466;SDS011;4270;48.148;11.648;2023-10-19T07:52:04;14.43;;;10.30;;
8466;SDS011;4270;48.148;11.648;2023-10-19T07:54:30;11.70;;;10.10;;
8466;SDS011;4270;48.148;11.648;2023-10-19T07:56:55;19.23;;;10.93;;
8466;SDS011;4270;48.148;11.648;2023-10-19T07:59:20;13.30;;;9.90;;
8466;SDS011;4270;48.148;11.648;2023-10-19T08:01:46;11.60;;;9.13;;
8466;SDS011;4270;48.148;11.648;2023-10-19T08:04:11;10.70;;;8.93;;
8466;SDS011;4270;48.148;11.648;2023-10-19T08:06:37;11.20;;;10.00;;
8466;SDS011;4270;48.148;11.648;2023-10-19T08:09:02;10.50;;;9.50;;
8466;SDS011;4270;48.148;11.648;2023-10-19T08:11:30;9.97;;;8.90;;
8466;SDS011;4270;48.148;11.648;2023-10-19T08:13:56;12.30;;;8.00;;
8466;SDS011;4270;48.148;11.648;2023-10-19T08:16:21;9.83;;;8.90;;
8466;SDS011;4270;48.148;11.648;2023-10-19T08:18:46;8.90;;;7.63;;
8466;SDS011;4270;48.148;11.648;2023-10-19T08:21:11;11.03;;;9.23;;
8466;SDS011;4270;48.148;11.648;2023-10-19T08:23:37;9.97;;;8.97;;
8466;SDS011;4270;48.148;11.648;2023-10-19T08:26:03;23.93;;;20.20;;
8466;SDS011;4270;48.148;11.648;2023-10-19T08:28:28;22.20;;;19.90;;
8466;SDS011;4270;48.148;11.648;2023-10-19T08:30:53;29.37;;;26.93;;
8466;SDS011;4270;48.148;11.648;2023-10-19T08:33:28;28.03;;;26.23;;
8466;SDS011;4270;48.148;11.648;2023-10-19T08:35:54;27.77;;;26.00;;
8466;SDS011;4270;48.148;11.648;2023-10-19T08:38:20;30.43;;;28.47;;
8466;SDS011;4270;48.148;11.648;2023-10-19T08:40:45;25.53;;;24.00;;
8466;SDS011;4270;48.148;11.648;2023-10-19T08:43:11;26.87;;;25.30;;
8466;SDS011;4270;48.148;11.648;2023-10-19T08:45:38;28.50;;;26.80;;
8466;SDS011;4270;48.148;11.648;2023-10-19T08:48:03;29.17;;;27.37;;
8466;SDS011;4270;48.148;11.648;2023-10-19T08:50:30;23.23;;;21.70;;
8466;SDS011;4270;48.148;11.648;2023-10-19T08:52:56;20.20;;;18.90;;
8466;SDS011;4270;48.148;11.648;2023-10-19T08:55:22;22.93;;;21.43;;
8466;SDS011;4270;48.148;11.648;2023-10-19T08:57:51;24.43;;;23.03;;
8466;SDS011;4270;48.148;11.648;2023-10-19T09:00:17;20.73;;;19.30;;
8466;SDS011;4270;48.148;11.648;2023-10-19T09:02:43;21.40;;;20.10;;
8466;SDS011;4270;48.148;11.648;2023-10-19T09:05:08;20.70;;;19.40;;
8466;SDS011;4270;48.148;11.648;2023-10-19T09:07:34;20.03;;;18.60;;
8466;SDS011;4270;48.148;11.648;2023-10-19T09:09:59;21.10;;;19.50;;
8466;SDS011;4270;48.148;11.648;2023-10-19T09:12:26;24.13;;;22.23;;
8466;SDS011;4270;48.148;11.648;2023-10-19T09:14:51;28.73;;;26.33;;
8466;SDS011;4270;48.148;11.648;2023-10-19T09:17:17;25.37;;;23.10;;
8466;SDS011;4270;48.148;11.648;2023-10-19T09:19:52;22.90;;;20.90;;
8466;SDS011;4270;48.148;11.648;2023-10-19T09:22:18;21.90;;;20.20;;
8466;SDS011;4270;48.148;11.648;2023-10-19T09:24:46;20.40;;;18.63;;
8466;SDS011;4270;48.148;11.648;2023-10-19T09:27:12;20.83;;;19.20;;
8466;SDS011;4270;48.148;11.648;2023-10-19T09:29:38;16.37;;;15.07;;
8466;SDS011;4270;48.148;11.648;2023-10-19T09:32:03;17.80;;;16.43;;
8466;SDS011;4270;48.148;11.648;2023-10-19T09:34:30;18.57;;;17.00;;
8466;SDS011;4270;48.148;11.648;2023-10-19T09:37:01;15.87;;;14.60;;
8466;SDS011;4270;48.148;11.648;2023-10-19T09:39:28;15.87;;;14.20;;
8466;SDS011;4270;48.148;11.648;2023-10-19T09:41:59;14.13;;;13.00;;
8466;SDS011;4270;48.148;11.648;2023-10-19T09:44:26;15.87;;;14.53;;
8466;SDS011;4270;48.148;11.648;2023-10-19T09:46:53;13.60;;;12.50;;
8466;SDS011;4270;48.148;11.648;2023-10-19T09:49:21;13.93;;;11.97;;
8466;SDS011;4270;48.148;11.648;2023-10-19T09:51:46;14.43;;;11.43;;
8466;SDS011;4270;48.148;11.648;2023-10-19T09:54:17;17.33;;;13.00;;
8466;SDS011;4270;48.148;11.648;2023-10-19T09:56:46;14.40;;;12.90;;
8466;SDS011;4270;48.148;11.648;2023-10-19T09:59:27;15.17;;;13.67;;
8466;SDS011;4270;48.148;11.648;2023-10-19T10:02:04;18.13;;;16.73;;
8466;SDS011;4270;48.148;11.648;2023-10-19T10:04:32;19.43;;;18.00;;
8466;SDS011;4270;48.148;11.648;2023-10-19T10:06:58;11.23;;;10.13;;
8466;SDS011;4270;48.148;11.648;2023-10-19T10:09:25;12.27;;;8.20;;
8466;SDS011;4270;48.148;11.648;2023-10-19T10:11:54;10.00;;;8.30;;
8466;SDS011;4270;48.148;11.648;2023-10-19T10:14:23;11.43;;;9.00;;
8466;SDS011;4270;48.148;11.648;2023-10-19T10:16:59;11.57;;;9.60;;
8466;SDS011;4270;48.148;11.648;2023-10-19T10:19:25;11.63;;;10.50;;
8466;SDS011;4270;48.148;11.648;2023-10-19T10:22:03;10.67;;;8.83;;
8466;SDS011;4270;48.148;11.648;2023-10-19T10:24:30;12.97;;;10.67;;
8466;SDS011;4270;48.148;11.648;2023-10-19T10:26:59;16.90;;;12.17;;
8466;SDS011;4270;48.148;11.648;2023-10-19T10:29:28;15.63;;;11.37;;
8466;SDS011;4270;48.148;11.648;2023-10-19T10:31:54;20.93;;;14.43;;
8466;SDS011;4270;48.148;11.648;2023-10-19T10:37:06;22.77;;;14.70;;
8466;SDS011;4270;48.148;11.648;2023-10-19T10:39:35;23.27;;;18.50;;
8466;SDS011;4270;48.148;11.648;2023-10-19T10:42:05;21.37;;;18.80;;
8466;SDS011;4270;48.148;11.648;2023-10-19T10:44:40;24.90;;;18.80;;
8466;SDS011;4270;48.148;11.648;2023-10-19T10:47:06;22.73;;;15.67;;
8466;SDS011;4270;48.148;11.648;2023-10-19T10:49:33;23.87;;;17.60;;
8466;SDS011;4270;48.148;11.648;2023-10-19T10:51:58;22.23;;;16.63;;
8466;SDS011;4270;48.148;11.648;2023-10-19T10:54:23;22.97;;;15.63;;
8466;SDS011;4270;48.148;11.648;2023-10-19T10:56:49;21.63;;;13.50;;
8466;SDS011;4270;48.148;11.648;2023-10-19T10:59:14;22.67;;;14.70;;
8466;SDS011;4270;48.148;11.648;2023-10-19T11:01:39;23.33;;;14.63;;
8466;SDS011;4270;48.148;11.648;2023-10-19T11:04:07;25.53;;;15.00;;
8466;SDS011;4270;48.148;11.648;2023-10-19T11:06:32;22.10;;;15.60;;
8466;SDS011;4270;48.148;11.648;2023-10-19T11:08:57;21.80;;;17.20;;
8466;SDS011;4270;48.148;11.648;2023-10-19T11:11:23;29.27;;;26.20;;
8466;SDS011;4270;48.148;11.648;2023-10-19T11:13:48;31.17;;;28.47;;
8466;SDS011;4270;48.148;11.648;2023-10-19T11:16:21;31.10;;;28.00;;
8466;SDS011;4270;48.148;11.648;2023-10-19T11:18:48;32.03;;;28.63;;
8466;SDS011;4270;48.148;11.648;2023-10-19T11:21:14;28.73;;;26.03;;
8466;SDS011;4270;48.148;11.648;2023-10-19T11:23:46;29.50;;;26.50;;
8466;SDS011;4270;48.148;11.648;2023-10-19T11:26:21;34.13;;;31.40;;
8466;SDS011;4270;48.148;11.648;2023-10-19T11:28:47;42.00;;;38.77;;
8466;SDS011;4270;48.148;11.648;2023-10-19T11:31:21;59.47;;;55.77;;
8466;SDS011;4270;48.148;11.648;2023-10-19T11:33:50;52.90;;;49.30;;
8466;SDS011;4270;48.148;11.648;2023-10-19T11:36:16;34.33;;;31.60;;
8466;SDS011;4270;48.148;11.648;2023-10-19T11:38:45;26.23;;;23.90;;
8466;SDS011;4270;48.148;11.648;2023-10-19T11:41:11;31.40;;;28.57;;
8466;SDS011;4270;48.148;11.648;2023-10-19T11:43:38;29.77;;;27.37;;
8466;SDS011;4270;48.148;11.648;2023-10-19T11:46:03;27.80;;;25.23;;
8466;SDS011;4270;48.148;11.648;2023-10-19T11:48:34;22.07;;;19.97;;
8466;SDS011;4270;48.148;11.648;2023-10-19T11:51:05;19.67;;;18.07;;
8466;SDS011;4270;48.148;11.648;2023-10-19T11:53:31;18.23;;;15.17;;
8466;SDS011;4270;48.148;11.648;2023-10-19T11:55:58;17.20;;;15.60;;
8466;SDS011;4270;48.148;11.648;2023-10-19T11:58:23;16.10;;;13.07;;
8466;SDS011;4270;48.148;11.648;2023-10-19T12:00:48;13.47;;;12.07;;
8466;SDS011;4270;48.148;11.648;2023-10-19T12:03:14;13.00;;;11.73;;
8466;SDS011;4270;48.148;11.648;2023-10-19T12:05:40;12.60;;;11.30;;
8466;SDS011;4270;48.148;11.648;2023-10-19T12:08:07;12.63;;;11.63;;
8466;SDS011;4270;48.148;11.648;2023-10-19T12:10:32;12.87;;;11.63;;
8466;SDS011;4270;48.148;11.648;2023-10-19T12:13:00;12.70;;;10.83;;
8466;SDS011;4270;48.148;11.648;2023-10-19T12:15:26;13.90;;;12.63;;
8466;SDS011;4270;48.148;11.648;2023-10-19T12:17:52;13.60;;;12.27;;
8466;SDS011;4270;48.148;11.648;2023-10-19T12:20:19;14.83;;;13.63;;
8466;SDS011;4270;48.148;11.648;2023-10-19T12:22:46;26.47;;;24.63;;
8466;SDS011;4270;48.148;11.648;2023-10-19T12:25:12;22.70;;;21.40;;
8466;SDS011;4270;48.148;11.648;2023-10-19T12:27:38;25.83;;;24.33;;
8466;SDS011;4270;48.148;11.648;2023-10-19T12:30:03;26.53;;;24.50;;
8466;SDS011;4270;48.148;11.648;2023-10-19T12:32:38;23.17;;;21.63;;
8466;SDS011;4270;48.148;11.648;2023-10-19T12:35:03;20.80;;;19.43;;
8466;SDS011;4270;48.148;11.648;2023-10-19T12:37:36;20.23;;;18.80;;
8466;SDS011;4270;48.148;11.648;2023-10-19T12:40:06;20.57;;;19.23;;
8466;SDS011;4270;48.148;11.648;2023-10-19T12:42:51;24.03;;;22.53;;
8466;SDS011;4270;48.148;11.648;2023-10-19T12:45:17;18.53;;;17.43;;
8466;SDS011;4270;48.148;11.648;2023-10-19T12:47:44;17.20;;;16.13;;
8466;SDS011;4270;48.148;11.648;2023-10-19T12:50:09;22.20;;;20.70;;
8466;SDS011;4270;48.148;11.648;2023-10-19T12:52:34;20.23;;;18.90;;
8466;SDS011;4270;48.148;11.648;2023-10-19T12:55:02;21.20;;;19.70;;
8466;SDS011;4270;48.148;11.648;2023-10-19T12:57:29;22.00;;;20.53;;
8466;SDS011;4270;48.148;11.648;2023-10-19T12:59:54;27.37;;;25.77;;
8466;SDS011;4270;48.148;11.648;2023-10-19T13:02:19;26.93;;;25.43;;
8466;SDS011;4270;48.148;11.648;2023-10-19T13:04:45;21.23;;;19.83;;
8466;SDS011;4270;48.148;11.648;2023-10-19T13:07:11;19.20;;;18.00;;
8466;SDS011;4270;48.148;11.648;2023-10-19T13:09:37;21.33;;;20.10;;
8466;SDS011;4270;48.148;11.648;2023-10-19T13:12:02;24.20;;;22.53;;
8466;SDS011;4270;48.148;11.648;2023-10-19T13:14:32;24.13;;;22.63;;
8466;SDS011;4270;48.148;11.648;2023-10-19T13:16:59;24.30;;;23.13;;
8466;SDS011;4270;48.148;11.648;2023-10-19T13:19:24;22.73;;;21.43;;
8466;SDS011;4270;48.148;11.648;2023-10-19T13:21:50;23.83;;;22.33;;
8466;SDS011;4270;48.148;11.648;2023-10-19T13:24:15;25.90;;;24.37;;
8466;SDS011;4270;48.148;11.648;2023-10-19T13:26:41;25.27;;;23.87;;
8466;SDS011;4270;48.148;11.648;2023-10-19T13:29:10;25.20;;;23.80;;
8466;SDS011;4270;48.148;11.648;2023-10-19T13:31:35;25.03;;;23.63;;
8466;SDS011;4270;48.148;11.648;2023-10-19T13:34:01;25.23;;;23.90;;
8466;SDS011;4270;48.148;11.648;2023-10-19T13:36:28;23.20;;;21.83;;
8466;SDS011;4270;48.148;11.648;2023-10-19T13:38:53;22.70;;;21.50;;
8466;SDS011;4270;48.148;11.648;2023-10-19T13:41:19;23.70;;;22.33;;
8466;SDS011;4270;48.148;11.648;2023-10-19T13:43:45;23.67;;;22.37;;
8466;SDS011;4270;48.148;11.648;2023-10-19T13:46:10;22.00;;;20.53;;
8466;SDS011;4270;48.148;11.648;2023-10-19T13:48:36;20.60;;;19.43;;
8466;SDS011;4270;48.148;11.648;2023-10-19T13:51:04;15.93;;;14.83;;
8466;SDS011;4270;48.148;11.648;2023-10-19T13:53:38;15.40;;;14.40;;
8466;SDS011;4270;48.148;11.648;2023-10-19T13:56:07;12.60;;;11.73;;
8466;SDS011;4270;48.148;11.648;2023-10-19T13:58:32;11.33;;;10.23;;
8466;SDS011;4270;48.148;11.648;2023-10-19T14:00:58;9.33;;;8.47;;
8466;SDS011;4270;48.148;11.648;2023-10-19T14:03:23;8.80;;;7.90;;
8466;SDS011;4270;48.148;11.648;2023-10-19T14:05:49;7.53;;;6.83;;
8466;SDS011;4270;48.148;11.648;2023-10-19T14:08:16;9.93;;;9.00;;
8466;SDS011;4270;48.148;11.648;2023-10-19T14:10:41;10.30;;;9.30;;
8466;SDS011;4270;48.148;11.648;2023-10-19T14:13:10;14.27;;;13.17;;
8466;SDS011;4270;48.148;11.648;2023-10-19T14:15:39;16.73;;;15.40;;
8466;SDS011;4270;48.148;11.648;2023-10-19T14:18:04;23.40;;;18.80;;
8466;SDS011;4270;48.148;11.648;2023-10-19T14:20:30;22.73;;;20.73;;
8466;SDS011;4270;48.148;11.648;2023-10-19T14:22:56;27.23;;;24.83;;
8466;SDS011;4270;48.148;11.648;2023-10-19T14:25:22;26.17;;;24.10;;
8466;SDS011;4270;48.148;11.648;2023-10-19T14:27:51;20.27;;;18.53;;
8466;SDS011;4270;48.148;11.648;2023-10-19T14:30:19;19.40;;;17.33;;
8466;SDS011;4270;48.148;11.648;2023-10-19T14:32:47;21.17;;;19.00;;
8466;SDS011;4270;48.148;11.648;2023-10-19T14:35:12;23.90;;;22.20;;
8466;SDS011;4270;48.148;11.648;2023-10-19T14:37:38;24.20;;;22.40;;
8466;SDS011;4270;48.148;11.648;2023-10-19T14:40:05;21.33;;;19.53;;
8466;SDS011;4270;48.148;11.648;2023-10-19T14:42:34;24.47;;;22.60;;